createdAt,value
2018-12-13T00:00:04.150Z,9.13
2018-12-13T00:05:07.606Z,10.10
2018-12-13T00:10:10.870Z,9.47
2018-12-13T00:15:14.174Z,8.10
2018-12-13T00:20:17.374Z,9.30
2018-12-13T00:25:20.574Z,7.07
2018-12-13T00:30:23.898Z,9.00
2018-12-13T00:35:27.110Z,8.20
2018-12-13T00:40:30.317Z,8.37
2018-12-13T00:45:33.523Z,7.97
2018-12-13T00:50:36.744Z,7.37
2018-12-13T00:55:39.982Z,7.77
2018-12-13T01:00:43.199Z,6.90
2018-12-13T01:05:46.419Z,7.97
2018-12-13T01:10:49.717Z,7.30
2018-12-13T01:15:52.931Z,6.67
2018-12-13T01:20:56.175Z,8.07
2018-12-13T01:25:59.407Z,7.10
2018-12-13T01:31:02.686Z,7.10
2018-12-13T01:36:05.907Z,7.17
2018-12-13T01:41:09.120Z,7.17
2018-12-13T01:46:12.438Z,7.17
2018-12-13T01:51:15.726Z,5.57
2018-12-13T01:56:18.937Z,6.30
2018-12-13T02:01:22.106Z,5.80
2018-12-13T02:06:25.309Z,6.40
2018-12-13T02:11:28.510Z,6.40
2018-12-13T02:16:31.926Z,5.83
2018-12-13T02:21:35.135Z,6.53
2018-12-13T02:26:38.386Z,7.07
2018-12-13T02:31:41.642Z,5.90
2018-12-13T02:36:45.029Z,6.10
2018-12-13T02:41:48.289Z,5.93
2018-12-13T02:46:51.557Z,5.03
2018-12-13T02:51:54.854Z,5.10
2018-12-13T02:56:58.138Z,5.50
2018-12-13T03:02:01.534Z,5.87
2018-12-13T03:07:04.903Z,5.70
2018-12-13T03:12:08.201Z,4.90
2018-12-13T03:17:11.659Z,4.50
2018-12-13T03:22:14.941Z,5.33
2018-12-13T03:27:18.230Z,5.17
2018-12-13T03:32:21.506Z,5.37
2018-12-13T03:37:24.851Z,5.70
2018-12-13T03:42:27.425Z,5.13
2018-12-13T03:47:30.722Z,5.63
2018-12-13T03:52:33.991Z,4.90
2018-12-13T03:57:37.270Z,4.93
2018-12-13T04:02:40.539Z,4.80
2018-12-13T04:07:43.122Z,5.20
2018-12-13T04:12:46.522Z,4.83
2018-12-13T04:17:49.791Z,5.60
2018-12-13T04:22:53.126Z,4.80
2018-12-13T04:27:56.391Z,4.57
2018-12-13T04:32:59.652Z,5.27
2018-12-13T04:38:03.056Z,4.87
2018-12-13T04:43:06.350Z,4.57
2018-12-13T04:48:09.606Z,4.60
2018-12-13T04:53:12.845Z,4.47
2018-12-13T04:58:16.077Z,4.83
2018-12-13T05:03:19.313Z,4.77
2018-12-13T05:08:22.579Z,6.47
2018-12-13T05:13:25.821Z,6.23
2018-12-13T05:18:29.057Z,5.80
2018-12-13T05:23:32.326Z,5.70
2018-12-13T05:28:35.599Z,5.13
2018-12-13T05:33:38.842Z,7.10
2018-12-13T05:38:42.141Z,7.50
2018-12-13T05:43:47.727Z,6.60
2018-12-13T05:48:51.002Z,6.70
2018-12-13T05:53:54.294Z,7.60
2018-12-13T05:58:57.533Z,7.30
2018-12-13T06:04:00.834Z,7.90
2018-12-13T06:09:06.266Z,8.50
2018-12-13T06:14:09.530Z,8.00
2018-12-13T06:19:12.774Z,8.33
2018-12-13T06:24:16.972Z,9.10
2018-12-13T06:29:20.278Z,8.57
2018-12-13T06:34:23.620Z,8.03
2018-12-13T06:39:26.854Z,8.23
2018-12-13T06:44:30.142Z,8.13
2018-12-13T06:49:33.390Z,8.33
2018-12-13T06:54:36.653Z,8.93
2018-12-13T06:59:39.914Z,8.00
2018-12-13T07:04:43.169Z,8.00
2018-12-13T07:09:46.423Z,9.70
2018-12-13T07:14:49.683Z,7.20
2018-12-13T07:19:52.962Z,9.23
2018-12-13T07:24:56.222Z,11.60
2018-12-13T07:29:59.594Z,9.17
2018-12-13T07:35:02.924Z,10.70
2018-12-13T07:40:06.832Z,9.87
2018-12-13T07:45:10.097Z,9.83
2018-12-13T07:50:13.610Z,10.07
2018-12-13T07:55:16.869Z,10.00
2018-12-13T08:00:20.219Z,10.63
2018-12-13T08:10:25.993Z,11.73
2018-12-13T08:15:29.256Z,11.13
2018-12-13T08:20:32.514Z,11.13
2018-12-13T08:25:36.394Z,12.40
2018-12-13T08:30:39.747Z,12.30
2018-12-13T08:35:43.010Z,11.57
2018-12-13T08:40:46.298Z,10.33
2018-12-13T08:45:49.537Z,12.30
2018-12-13T08:50:54.231Z,9.80
2018-12-13T08:55:57.811Z,10.60
2018-12-13T09:01:01.057Z,11.73
2018-12-13T09:06:04.375Z,11.93
2018-12-13T09:11:07.634Z,13.27
2018-12-13T09:16:10.942Z,11.40
2018-12-13T09:21:14.245Z,12.17
2018-12-13T09:26:17.575Z,10.97
2018-12-13T09:31:20.858Z,10.43
2018-12-13T09:36:24.133Z,12.50
2018-12-13T09:41:27.450Z,13.27
2018-12-13T09:46:30.839Z,10.77
2018-12-13T09:51:34.235Z,12.30
2018-12-13T09:56:37.642Z,13.43
2018-12-13T10:01:40.941Z,12.90
2018-12-13T10:06:44.245Z,12.03
2018-12-13T10:11:47.499Z,12.03
2018-12-13T10:21:53.422Z,12.43
2018-12-13T10:26:56.796Z,13.87
2018-12-13T10:32:00.123Z,15.10
2018-12-13T10:37:03.439Z,14.27
2018-12-13T10:42:06.720Z,14.17
2018-12-13T10:47:09.983Z,13.40
2018-12-13T10:52:13.368Z,13.60
2018-12-13T10:57:16.739Z,13.10
2018-12-13T11:02:25.453Z,13.00
2018-12-13T11:07:28.729Z,14.20
2018-12-13T11:12:32.180Z,13.00
2018-12-13T11:17:35.488Z,13.17
2018-12-13T11:22:38.787Z,12.60
2018-12-13T11:28:24.711Z,14.23
2018-12-13T11:33:27.994Z,12.43
2018-12-13T11:38:31.246Z,14.80
2018-12-13T11:43:34.524Z,12.40
2018-12-13T11:48:37.782Z,14.70
2018-12-13T11:53:41.766Z,12.60
2018-12-13T11:58:45.050Z,13.30
2018-12-13T12:03:48.355Z,14.03
2018-12-13T12:08:51.619Z,13.37
2018-12-13T12:13:55.046Z,13.03
2018-12-13T12:18:58.328Z,14.40
2018-12-13T12:24:01.597Z,13.70
2018-12-13T12:29:04.915Z,13.67
2018-12-13T12:34:08.205Z,13.23
2018-12-13T12:39:11.498Z,13.80
2018-12-13T12:44:14.757Z,13.40
2018-12-13T12:49:18.034Z,14.97
2018-12-13T12:54:21.433Z,14.90
2018-12-13T12:59:24.733Z,14.20
2018-12-13T13:04:28.022Z,14.13
2018-12-13T13:09:31.306Z,13.00
2018-12-13T13:14:34.614Z,14.50
2018-12-13T13:19:37.894Z,13.77
2018-12-13T13:24:41.142Z,14.90
2018-12-13T13:29:44.499Z,13.03
2018-12-13T13:34:47.737Z,14.10
2018-12-13T13:39:50.998Z,13.10
2018-12-13T13:44:58.505Z,13.47
2018-12-13T13:50:01.762Z,12.30
2018-12-13T13:55:05.440Z,12.67
2018-12-13T14:00:10.790Z,12.53
2018-12-13T14:05:14.158Z,12.57
2018-12-13T14:10:17.418Z,14.63
2018-12-13T14:15:20.703Z,13.00
2018-12-13T14:20:23.964Z,16.60
2018-12-13T14:25:27.219Z,16.23
2018-12-13T14:30:30.513Z,16.50
2018-12-13T14:35:33.797Z,17.80
2018-12-13T14:40:37.041Z,18.23
2018-12-13T14:45:40.317Z,15.47
2018-12-13T14:50:43.578Z,15.70
2018-12-13T14:55:46.841Z,15.33
2018-12-13T15:00:50.106Z,21.55
2018-12-13T15:05:53.364Z,21.00
2018-12-13T15:10:56.609Z,25.40
2018-12-13T15:15:59.866Z,20.27
2018-12-13T15:21:03.126Z,15.77
2018-12-13T15:26:06.373Z,15.50
2018-12-13T15:31:09.688Z,17.70
2018-12-13T15:36:13.011Z,15.60
2018-12-13T15:41:16.255Z,13.87
2018-12-13T15:46:19.501Z,14.50
2018-12-13T15:51:22.768Z,15.07
2018-12-13T15:56:26.010Z,15.00
2018-12-13T16:06:31.776Z,14.00
2018-12-13T16:11:35.062Z,12.40
2018-12-13T16:16:38.358Z,17.37
2018-12-13T16:21:41.634Z,16.83
2018-12-13T16:26:44.901Z,14.93
2018-12-13T16:31:47.542Z,15.87
2018-12-13T16:36:50.940Z,15.20
2018-12-13T16:41:54.234Z,17.57
2018-12-13T16:46:57.601Z,16.83
2018-12-13T16:52:00.874Z,15.40
2018-12-13T16:57:04.274Z,15.00
2018-12-13T17:02:07.736Z,14.73
2018-12-13T17:07:11.094Z,12.37
2018-12-13T17:12:14.345Z,12.40
2018-12-13T17:17:17.611Z,11.07
2018-12-13T17:22:20.891Z,11.03
2018-12-13T17:27:23.450Z,10.77
2018-12-13T17:32:26.695Z,10.80
2018-12-13T17:37:29.969Z,12.47
2018-12-13T17:42:33.249Z,12.73
2018-12-13T17:47:36.541Z,9.87
2018-12-13T17:52:39.808Z,11.90
2018-12-13T17:57:43.082Z,11.17
2018-12-13T18:02:46.350Z,12.03
2018-12-13T18:07:49.644Z,10.97
2018-12-13T18:12:52.911Z,11.53
2018-12-13T18:17:56.194Z,10.33
2018-12-13T18:22:59.519Z,9.67
2018-12-13T18:28:02.869Z,11.47
2018-12-13T18:33:06.156Z,10.23
2018-12-13T18:38:09.465Z,10.10
2018-12-13T18:43:12.751Z,10.00
2018-12-13T18:48:16.066Z,10.47
2018-12-13T18:53:19.339Z,9.60
2018-12-13T18:58:22.686Z,11.33
2018-12-13T19:03:26.051Z,10.70
2018-12-13T19:08:29.443Z,10.30
2018-12-13T19:13:33.193Z,8.73
2018-12-13T19:18:36.890Z,12.70
2018-12-13T19:23:40.399Z,13.60
2018-12-13T19:28:44.040Z,11.83
2018-12-13T19:33:49.124Z,11.20
2018-12-13T19:38:52.413Z,10.70
2018-12-13T19:43:55.703Z,10.97
2018-12-13T19:48:58.982Z,11.10
2018-12-13T19:54:02.269Z,11.27
2018-12-13T19:59:05.627Z,12.30
2018-12-13T20:04:08.999Z,11.90
2018-12-13T20:09:12.295Z,12.30
2018-12-13T20:14:15.616Z,11.13
2018-12-13T20:19:18.919Z,11.17
2018-12-13T20:24:22.236Z,11.10
2018-12-13T20:29:25.747Z,9.53
2018-12-13T20:34:29.017Z,12.43
2018-12-13T20:39:32.318Z,11.17
2018-12-13T20:44:35.608Z,10.90
2018-12-13T20:49:38.887Z,10.80
2018-12-13T20:54:42.179Z,10.30
2018-12-13T20:59:45.480Z,11.20
2018-12-13T21:04:48.755Z,12.00
2018-12-13T21:09:52.055Z,10.10
2018-12-13T21:14:55.356Z,10.50
2018-12-13T21:19:58.638Z,11.23
2018-12-13T21:25:01.934Z,10.13
2018-12-13T21:30:06.235Z,11.97
2018-12-13T21:35:09.747Z,10.93
2018-12-13T21:40:13.059Z,9.57
2018-12-13T21:45:16.335Z,11.40
2018-12-13T21:50:19.707Z,10.00
2018-12-13T21:55:22.979Z,10.50
2018-12-13T22:00:26.266Z,9.83
2018-12-13T22:05:29.535Z,11.60
2018-12-13T22:10:32.916Z,10.37
2018-12-13T22:15:35.726Z,9.50
2018-12-13T22:20:38.967Z,11.63
2018-12-13T22:25:42.234Z,11.80
2018-12-13T22:30:45.484Z,11.60
2018-12-13T22:35:48.783Z,12.20
2018-12-13T22:40:52.177Z,11.80
2018-12-13T22:45:55.479Z,11.53
2018-12-13T22:50:58.745Z,10.97
2018-12-13T22:56:02.078Z,12.60
2018-12-13T23:01:05.596Z,11.77
2018-12-13T23:06:08.411Z,11.20
2018-12-13T23:11:12.258Z,12.97
2018-12-13T23:16:15.501Z,12.03
2018-12-13T23:21:18.745Z,12.10
2018-12-13T23:26:21.982Z,10.80
2018-12-13T23:31:25.244Z,10.50
2018-12-13T23:36:28.518Z,11.93
2018-12-13T23:41:31.293Z,10.90
2018-12-13T23:51:37.066Z,12.10
2018-12-13T23:56:40.913Z,11.37
